createdAt,value
2019-05-23T00:04:19.083Z,82.73
2019-05-23T00:09:43.356Z,82.78
2019-05-23T00:14:53.453Z,82.95
2019-05-23T00:20:01.238Z,83.21
2019-05-23T00:25:10.512Z,82.79
2019-05-23T00:30:23.856Z,82.23
2019-05-23T00:35:32.078Z,81.91
2019-05-23T00:40:39.506Z,82.12
2019-05-23T00:45:45.488Z,81.99
2019-05-23T00:50:53.128Z,82.29
2019-05-23T00:56:00.516Z,81.97
2019-05-23T01:01:07.419Z,82.76
2019-05-23T01:06:14.384Z,83.73
2019-05-23T01:11:21.664Z,83.67
2019-05-23T01:16:31.418Z,83.96
2019-05-23T01:21:57.459Z,82.93
2019-05-23T01:27:04.992Z,82.50
2019-05-23T01:32:13.131Z,82.60
2019-05-23T01:37:21.207Z,83.51
2019-05-23T01:42:28.714Z,83.10
2019-05-23T01:47:35.866Z,82.54
2019-05-23T01:52:42.489Z,83.25
2019-05-23T01:57:49.496Z,84.12
2019-05-23T02:02:56.286Z,84.76
2019-05-23T02:08:03.126Z,84.02
2019-05-23T02:13:09.144Z,84.57
2019-05-23T02:18:15.544Z,84.19
2019-05-23T02:23:22.830Z,83.23
2019-05-23T02:28:30.438Z,83.48
2019-05-23T02:33:37.005Z,83.29
2019-05-23T02:38:49.653Z,83.87
2019-05-23T02:43:59.011Z,83.96
2019-05-23T02:49:09.593Z,83.77
2019-05-23T02:54:18.421Z,83.44
2019-05-23T02:59:38.125Z,82.48
2019-05-23T03:04:46.336Z,83.56
2019-05-23T03:09:52.519Z,82.92
2019-05-23T03:14:59.502Z,82.78
2019-05-23T03:20:09.159Z,82.76
2019-05-23T03:25:39.441Z,82.37
2019-05-23T03:30:49.892Z,82.87
2019-05-23T03:35:58.337Z,83.10
2019-05-23T03:41:05.914Z,83.37
2019-05-23T03:46:16.391Z,82.96
2019-05-23T03:51:22.260Z,83.26
2019-05-23T03:56:30.276Z,83.60
2019-05-23T04:01:47.755Z,82.79
2019-05-23T04:06:43.874Z,82.57
2019-05-23T04:11:50.265Z,82.44
2019-05-23T04:16:57.747Z,82.75
2019-05-23T04:22:03.818Z,82.82
2019-05-23T04:27:11.019Z,83.46
2019-05-23T04:32:17.937Z,83.50
2019-05-23T04:37:24.088Z,83.51
2019-05-23T04:42:31.014Z,83.31
2019-05-23T04:47:38.599Z,82.51
2019-05-23T04:52:45.132Z,81.69
2019-05-23T04:57:52.515Z,81.91
2019-05-23T05:02:58.476Z,81.65
2019-05-23T05:08:05.298Z,82.07
2019-05-23T05:13:11.616Z,82.39
2019-05-23T05:18:17.933Z,82.65
2019-05-23T05:23:23.992Z,81.75
2019-05-23T05:28:29.976Z,81.30
2019-05-23T05:33:36.135Z,81.27
2019-05-23T05:38:42.904Z,80.96
2019-05-23T05:43:49.280Z,80.42
2019-05-23T05:48:56.064Z,80.10
2019-05-23T05:54:02.192Z,80.53
2019-05-23T06:03:53.410Z,81.23
2019-05-23T06:09:03.803Z,81.31
2019-05-23T06:14:10.565Z,81.07
2019-05-23T06:19:17.761Z,80.98
2019-05-23T06:24:42.379Z,80.72
2019-05-23T06:29:32.371Z,79.88
2019-05-23T06:34:39.629Z,79.69
2019-05-23T06:39:45.549Z,80.63
2019-05-23T06:44:51.869Z,81.22
2019-05-23T06:49:58.237Z,81.59
2019-05-23T06:55:05.809Z,81.75
2019-05-23T07:00:14.237Z,81.55
2019-05-23T07:05:25.518Z,80.64
2019-05-23T07:10:31.800Z,80.38
2019-05-23T07:15:38.016Z,80.52
2019-05-23T07:20:44.817Z,80.92
2019-05-23T07:25:51.360Z,81.05
2019-05-23T07:30:57.946Z,80.75
2019-05-23T07:36:04.438Z,80.59
2019-05-23T07:41:11.015Z,80.69
2019-05-23T07:46:17.808Z,80.15
2019-05-23T07:51:23.876Z,80.03
2019-05-23T07:56:31.944Z,79.70
2019-05-23T08:01:39.317Z,79.62
2019-05-23T08:06:48.795Z,80.00
2019-05-23T08:11:53.187Z,79.59
2019-05-23T08:16:59.667Z,78.71
2019-05-23T08:22:06.480Z,77.87
2019-05-23T08:27:13.154Z,78.23
2019-05-23T08:32:19.556Z,78.20
2019-05-23T08:37:25.708Z,77.65
2019-05-23T08:42:32.171Z,77.69
2019-05-23T08:47:39.181Z,76.37
2019-05-23T08:52:45.621Z,76.43
2019-05-23T08:57:52.436Z,76.41
2019-05-23T09:02:59.383Z,76.75
2019-05-23T09:08:07.161Z,75.55
2019-05-23T09:13:13.957Z,74.84
2019-05-23T09:18:20.126Z,75.09
2019-05-23T09:23:26.925Z,72.21
2019-05-23T09:28:33.394Z,72.64
2019-05-23T09:33:41.235Z,70.30
2019-05-23T09:38:47.782Z,69.73
2019-05-23T09:43:54.488Z,70.14
2019-05-23T09:49:00.461Z,68.90
2019-05-23T09:54:06.883Z,69.86
2019-05-23T09:59:13.519Z,69.55
2019-05-23T10:04:19.496Z,70.07
2019-05-23T10:09:25.577Z,69.25
2019-05-23T10:14:33.226Z,70.08
2019-05-23T10:19:41.145Z,69.53
2019-05-23T10:24:47.587Z,68.28
2019-05-23T10:29:53.954Z,67.71
2019-05-23T10:35:00.249Z,66.80
2019-05-23T10:40:07.165Z,65.05
2019-05-23T10:45:15.457Z,65.10
2019-05-23T10:50:21.978Z,65.10
2019-05-23T10:55:28.533Z,66.02
2019-05-23T11:00:36.265Z,66.31
2019-05-23T11:05:42.301Z,67.33
2019-05-23T11:10:49.720Z,66.08
2019-05-23T11:15:56.911Z,65.27
2019-05-23T11:21:02.881Z,66.18
2019-05-23T11:26:09.726Z,64.71
2019-05-23T11:31:16.949Z,66.05
2019-05-23T11:36:35.516Z,66.08
2019-05-23T11:41:33.166Z,67.19
2019-05-23T11:46:40.126Z,66.50
2019-05-23T11:51:46.394Z,67.32
2019-05-23T11:56:52.723Z,66.87
2019-05-23T12:02:09.807Z,66.15
2019-05-23T12:07:20.277Z,66.80
2019-05-23T12:12:26.859Z,67.40
2019-05-23T12:17:33.847Z,66.01
2019-05-23T12:22:40.354Z,66.86
2019-05-23T12:27:47.039Z,66.15
2019-05-23T12:32:53.194Z,64.95
2019-05-23T12:38:02.423Z,63.51
2019-05-23T12:43:07.188Z,63.54
2019-05-23T12:48:31.189Z,61.89
2019-05-23T12:53:38.272Z,62.74
2019-05-23T12:58:45.481Z,61.33
2019-05-23T13:03:51.457Z,61.21
2019-05-23T13:08:57.724Z,61.80
2019-05-23T13:14:04.063Z,60.26
2019-05-23T13:19:10.288Z,62.55
2019-05-23T13:24:16.562Z,61.18
2019-05-23T13:29:24.559Z,61.83
2019-05-23T13:34:30.757Z,62.32
2019-05-23T13:39:36.891Z,62.07
2019-05-23T13:44:42.909Z,63.73
2019-05-23T13:49:49.077Z,62.85
2019-05-23T13:54:55.312Z,64.00
2019-05-23T14:00:01.662Z,64.37
2019-05-23T14:05:09.484Z,64.84
2019-05-23T14:10:16.558Z,64.56
2019-05-23T14:15:24.366Z,64.87
2019-05-23T14:20:30.199Z,64.44
2019-05-23T14:25:36.929Z,65.86
2019-05-23T14:30:45.507Z,65.55
2019-05-23T14:35:53.076Z,65.22
2019-05-23T14:40:59.897Z,65.76
2019-05-23T14:46:07.981Z,64.96
2019-05-23T14:51:29.785Z,65.31
2019-05-23T14:56:40.494Z,65.58
2019-05-23T15:01:47.090Z,64.08
2019-05-23T15:06:53.162Z,63.04
2019-05-23T15:11:59.428Z,63.57
2019-05-23T15:17:05.981Z,63.12
2019-05-23T15:22:12.394Z,63.65
2019-05-23T15:27:18.668Z,61.57
2019-05-23T15:32:25.125Z,62.38
2019-05-23T15:37:31.222Z,64.25
2019-05-23T15:42:37.295Z,63.57
2019-05-23T15:47:43.622Z,65.02
2019-05-23T15:52:53.947Z,64.96
2019-05-23T15:58:02.637Z,65.24
2019-05-23T16:03:13.812Z,65.52
2019-05-23T16:08:18.944Z,65.04
2019-05-23T16:13:26.264Z,65.10
2019-05-23T16:18:33.330Z,65.69
2019-05-23T16:23:41.049Z,65.71
2019-05-23T16:28:47.020Z,65.90
2019-05-23T16:33:55.208Z,66.54
2019-05-23T16:39:01.611Z,66.23
2019-05-23T16:44:08.277Z,66.18
2019-05-23T16:49:15.118Z,66.25
2019-05-23T16:54:22.783Z,66.11
2019-05-23T16:59:39.534Z,65.85
2019-05-23T17:04:47.114Z,66.26
2019-05-23T17:10:11.247Z,65.77
2019-05-23T17:15:25.422Z,65.48
2019-05-23T17:20:33.856Z,65.24
2019-05-23T17:25:57.510Z,65.49
2019-05-23T17:31:05.340Z,65.56
2019-05-23T17:36:11.727Z,65.22
2019-05-23T17:41:19.213Z,65.46
2019-05-23T17:46:25.422Z,65.47
2019-05-23T17:51:32.106Z,65.16
2019-05-23T17:56:38.452Z,65.14
2019-05-23T18:01:45.362Z,65.48
2019-05-23T18:06:51.802Z,65.87
2019-05-23T18:11:58.370Z,66.05
2019-05-23T18:17:04.688Z,66.11
2019-05-23T18:22:12.916Z,66.28
2019-05-23T18:27:19.196Z,66.58
2019-05-23T18:32:27.446Z,67.05
2019-05-23T18:37:33.763Z,67.30
2019-05-23T18:42:41.304Z,67.42
2019-05-23T18:47:48.118Z,67.96
2019-05-23T18:52:54.313Z,68.48
2019-05-23T18:58:00.556Z,68.67
2019-05-23T19:03:06.631Z,68.87
2019-05-23T19:08:12.647Z,69.01
2019-05-23T19:13:19.384Z,69.33
2019-05-23T19:18:26.358Z,69.38
2019-05-23T19:23:32.756Z,69.46
2019-05-23T19:28:39.652Z,70.08
2019-05-23T19:33:46.148Z,69.77
2019-05-23T19:38:52.135Z,69.77
2019-05-23T19:43:58.106Z,69.73
2019-05-23T19:49:04.405Z,69.62
2019-05-23T19:54:10.741Z,69.79
2019-05-23T19:59:20.803Z,70.02
2019-05-23T20:04:31.124Z,70.33
2019-05-23T20:09:35.636Z,70.48
2019-05-23T20:14:41.791Z,70.61
2019-05-23T20:19:50.375Z,70.66
2019-05-23T20:24:55.564Z,71.83
2019-05-23T20:30:01.548Z,72.96
2019-05-23T20:35:08.247Z,72.36
2019-05-23T20:40:14.507Z,72.06
2019-05-23T20:45:20.678Z,72.26
2019-05-23T20:50:26.767Z,72.34
2019-05-23T20:55:32.779Z,72.18
2019-05-23T21:00:44.019Z,72.18
2019-05-23T21:05:49.886Z,71.17
2019-05-23T21:10:55.874Z,70.67
2019-05-23T21:16:01.834Z,70.86
2019-05-23T21:21:07.709Z,71.29
2019-05-23T21:26:13.870Z,71.65
2019-05-23T21:31:21.477Z,70.92
2019-05-23T21:36:27.557Z,70.79
2019-05-23T21:41:33.421Z,71.63
2019-05-23T21:46:39.392Z,72.04
2019-05-23T21:51:45.262Z,71.55
2019-05-23T21:56:51.030Z,71.35
2019-05-23T22:01:58.531Z,70.98
2019-05-23T22:07:04.616Z,70.52
2019-05-23T22:12:12.734Z,69.49
2019-05-23T22:17:20.343Z,69.64
2019-05-23T22:22:26.410Z,70.14
2019-05-23T22:27:32.380Z,70.80
2019-05-23T22:32:38.356Z,70.58
2019-05-23T22:37:44.934Z,70.47
2019-05-23T22:42:50.916Z,70.62
2019-05-23T22:47:56.982Z,70.84
2019-05-23T22:53:02.953Z,71.01
2019-05-23T22:58:10.154Z,71.31
2019-05-23T23:03:16.225Z,71.73
2019-05-23T23:08:23.178Z,73.01
2019-05-23T23:13:38.096Z,72.77
2019-05-23T23:18:36.805Z,73.21
2019-05-23T23:23:42.673Z,74.68
2019-05-23T23:28:48.946Z,74.38
2019-05-23T23:33:55.023Z,73.59
2019-05-23T23:39:01.199Z,73.45
2019-05-23T23:44:08.884Z,74.00
2019-05-23T23:49:32.183Z,73.94
2019-05-23T23:54:56.073Z,73.64
